Time;durP1;ratioP1;P1;durP2;ratioP2;P2;SDS_P1;SDS_P2;PMS_P1;PMS_P2;Temp;Humidity;BMP_temperature;BMP_pressure;BME280_temperature;BME280_humidity;BME280_pressure;Samples;Min_cycle;Max_cycle;Signal;HPM_P1;HPM_P2
2022/02/04 00:08:17;;;;;;;663.33;625.83;;;7.10;99.90;;;;;;5122020;28;20433;-81
2022/02/04 00:22:04;;;;;;;629.67;596.60;;;7.10;99.90;;;;;;5122782;28;20427;-81
2022/02/04 00:24:31;;;;;;;646.77;612.30;;;7.00;99.90;;;;;;5121778;28;20555;-81
2022/02/04 00:27:06;;;;;;;635.50;601.93;;;7.00;99.90;;;;;;5121686;28;20802;-81
2022/02/04 00:29:40;;;;;;;634.90;601.87;;;7.20;99.90;;;;;;5121005;28;20459;-81
2022/02/04 00:32:10;;;;;;;642.87;609.07;;;7.10;99.90;;;;;;5121242;28;20453;-81
2022/02/04 00:34:42;;;;;;;640.17;605.77;;;7.10;99.90;;;;;;5120381;28;20519;-81
2022/02/04 00:37:20;;;;;;;645.23;610.93;;;7.10;99.90;;;;;;5121739;28;20505;-81
2022/02/04 00:39:54;;;;;;;644.37;610.70;;;7.10;99.90;;;;;;5121168;28;20519;-81
2022/02/04 00:42:22;;;;;;;648.40;614.40;;;7.10;99.90;;;;;;5121164;28;20457;-81
2022/02/04 00:44:57;;;;;;;656.20;621.00;;;7.10;99.90;;;;;;5120435;28;20468;-81
2022/02/04 00:47:27;;;;;;;646.63;612.00;;;7.10;99.90;;;;;;5121980;28;20437;-81
2022/02/04 00:50:01;;;;;;;639.53;605.83;;;7.10;99.90;;;;;;5120745;28;20514;-81
2022/02/04 00:52:37;;;;;;;632.20;599.30;;;7.20;99.90;;;;;;5120856;28;20448;-81
2022/02/04 00:55:19;;;;;;;640.77;606.40;;;7.10;99.90;;;;;;5121042;28;20480;-81
2022/02/04 01:06:20;;;;;;;635.87;602.17;;;7.00;99.90;;;;;;5120983;28;20456;-81
2022/02/04 01:13:05;;;;;;;586.93;558.33;;;7.10;99.90;;;;;;5119584;28;20486;-81
2022/02/04 01:26:06;;;;;;;475.70;456.40;;;7.20;99.90;;;;;;5075680;28;20463;-81
2022/02/04 01:28:34;;;;;;;477.83;458.40;;;7.30;99.90;;;;;;5121509;28;21035;-80
2022/02/04 01:31:03;;;;;;;474.10;454.97;;;7.30;99.90;;;;;;5121776;28;20449;-81
2022/02/04 01:33:32;;;;;;;465.93;447.57;;;7.30;99.90;;;;;;5120152;28;20453;-80
2022/02/04 01:35:59;;;;;;;465.80;447.30;;;7.30;99.90;;;;;;5120409;28;20484;-80
2022/02/04 01:38:28;;;;;;;476.13;456.57;;;7.30;99.90;;;;;;5120081;28;20512;-80
2022/02/04 01:40:56;;;;;;;469.60;450.70;;;7.20;99.90;;;;;;5120811;28;20449;-80
2022/02/04 01:43:23;;;;;;;452.73;434.87;;;7.20;99.90;;;;;;5120316;28;20478;-80
2022/02/04 01:45:52;;;;;;;464.63;446.50;;;7.30;99.90;;;;;;5121249;28;20555;-80
2022/02/04 01:48:21;;;;;;;460.23;442.37;;;7.30;99.90;;;;;;5119797;28;20830;-80
2022/02/04 01:50:54;;;;;;;425.83;409.33;;;7.30;99.90;;;;;;5120056;28;20456;-80
2022/02/04 01:53:27;;;;;;;436.73;420.00;;;7.30;99.90;;;;;;5119310;28;20448;-80
2022/02/04 01:55:55;;;;;;;434.93;418.20;;;7.30;99.90;;;;;;5120132;28;20480;-80
2022/02/04 01:58:22;;;;;;;421.00;405.20;;;7.40;99.90;;;;;;5119232;28;20449;-80
2022/02/04 02:00:49;;;;;;;419.90;404.30;;;7.30;99.90;;;;;;5119644;28;20445;-80
2022/02/04 02:03:18;;;;;;;391.83;377.57;;;7.40;99.90;;;;;;5118640;28;20448;-80
2022/02/04 02:05:47;;;;;;;390.93;376.70;;;7.30;99.90;;;;;;5119606;28;20473;-80
2022/02/04 02:08:19;;;;;;;390.20;375.97;;;7.40;99.90;;;;;;5119208;28;20445;-79
2022/02/04 02:10:48;;;;;;;356.63;344.00;;;7.40;99.90;;;;;;5119531;28;20448;-79
2022/02/04 02:13:23;;;;;;;321.00;309.73;;;7.40;99.90;;;;;;5119143;28;20460;-80
2022/02/04 02:16:00;;;;;;;302.97;292.63;;;7.40;99.90;;;;;;5119011;28;20479;-80
2022/02/04 02:35:30;;;;;;;180.67;174.07;;;7.40;99.90;;;;;;5042652;28;20523;-80
2022/02/04 02:44:08;;;;;;;159.90;153.80;;;7.40;99.90;;;;;;5108630;28;20453;-79
2022/02/04 02:46:55;;;;;;;173.47;166.97;;;7.50;99.90;;;;;;5119167;28;20537;-80
2022/02/04 02:49:41;;;;;;;179.73;173.03;;;7.40;99.90;;;;;;5119641;28;20456;-81
2022/02/04 02:52:17;;;;;;;171.07;164.60;;;7.50;99.90;;;;;;5118794;28;21048;-80
2022/02/04 02:58:04;;;;;;;184.90;178.30;;;7.40;99.90;;;;;;5116575;27;20545;-81
2022/02/04 03:00:45;;;;;;;169.10;162.67;;;7.40;99.90;;;;;;5116008;28;20547;-82
2022/02/04 03:03:14;;;;;;;162.30;156.17;;;7.40;99.90;;;;;;5116723;28;20471;-81
2022/02/04 03:05:41;;;;;;;191.10;184.27;;;7.40;99.90;;;;;;5115821;28;20476;-81
2022/02/04 03:08:08;;;;;;;150.80;145.07;;;7.40;99.90;;;;;;5115685;28;20476;-80
2022/02/04 03:10:35;;;;;;;160.47;154.33;;;7.50;99.90;;;;;;5115904;28;20460;-81
2022/02/04 03:13:06;;;;;;;158.97;153.07;;;7.40;99.90;;;;;;5116529;28;20453;-81
2022/02/04 03:15:33;;;;;;;162.63;156.27;;;7.40;99.90;;;;;;5115485;28;20504;-81
2022/02/04 03:18:03;;;;;;;144.77;139.20;;;7.40;99.90;;;;;;5116318;28;20459;-82
2022/02/04 03:20:34;;;;;;;146.37;140.77;;;7.50;99.90;;;;;;5115746;28;20455;-81
2022/02/04 03:23:01;;;;;;;152.63;146.73;;;7.50;99.90;;;;;;5116257;28;20452;-82
2022/02/04 03:25:28;;;;;;;134.07;128.97;;;7.40;99.90;;;;;;5115966;28;20481;-81
2022/02/04 03:27:58;;;;;;;137.93;132.60;;;7.50;99.90;;;;;;5115527;28;20459;-82
2022/02/04 03:30:32;;;;;;;137.97;132.40;;;7.50;99.90;;;;;;5116592;28;20520;-81
2022/02/04 03:33:03;;;;;;;125.50;120.33;;;7.40;99.90;;;;;;5116203;28;20457;-81
2022/02/04 03:35:32;;;;;;;100.40;96.10;;;7.50;99.90;;;;;;5115482;28;20479;-82
2022/02/04 03:37:58;;;;;;;96.77;92.57;;;7.50;99.90;;;;;;5113925;28;20453;-81
2022/02/04 03:40:31;;;;;;;118.97;114.13;;;7.60;99.90;;;;;;5112437;28;20456;-82
2022/02/04 03:42:58;;;;;;;98.27;94.27;;;7.50;99.90;;;;;;5113877;28;20449;-81
2022/02/04 03:45:25;;;;;;;123.70;118.90;;;7.70;99.90;;;;;;5115394;28;20879;-81
2022/02/04 03:47:53;;;;;;;135.00;129.77;;;7.70;99.90;;;;;;5114465;28;21085;-81
2022/02/04 03:50:20;;;;;;;145.30;139.77;;;7.60;99.90;;;;;;5114109;28;20455;-81
2022/02/04 03:52:49;;;;;;;134.93;129.83;;;7.60;99.90;;;;;;5115000;28;20483;-81
2022/02/04 03:55:16;;;;;;;109.77;105.27;;;7.60;99.90;;;;;;5114437;28;20528;-81
2022/02/04 03:57:43;;;;;;;121.37;116.47;;;7.70;99.90;;;;;;5114354;28;20507;-81
2022/02/04 04:00:13;;;;;;;115.20;110.50;;;7.50;99.90;;;;;;5114300;28;20452;-81
2022/02/04 04:02:40;;;;;;;90.10;86.23;;;7.60;99.90;;;;;;5114084;28;20882;-81
2022/02/04 04:05:10;;;;;;;74.67;71.47;;;7.60;99.90;;;;;;5114550;28;20479;-82
2022/02/04 04:07:42;;;;;;;79.03;75.60;;;7.70;99.90;;;;;;5107688;28;20449;-81
2022/02/04 04:10:12;;;;;;;66.53;63.43;;;7.70;99.90;;;;;;5099816;28;20540;-81
2022/02/04 04:12:39;;;;;;;55.37;52.60;;;7.70;99.90;;;;;;5100233;28;20540;-81
2022/02/04 04:15:09;;;;;;;65.80;63.00;;;7.80;99.90;;;;;;5099829;28;20841;-81
2022/02/04 04:17:40;;;;;;;83.63;79.93;;;7.70;99.90;;;;;;5100345;28;20509;-81
2022/02/04 04:20:10;;;;;;;113.73;109.33;;;7.70;99.90;;;;;;5099710;28;20964;-82
2022/02/04 04:22:38;;;;;;;122.47;117.70;;;7.70;99.90;;;;;;5099345;28;20454;-80
2022/02/04 04:25:05;;;;;;;95.00;91.33;;;7.70;99.90;;;;;;5098979;28;20473;-80
2022/02/04 04:27:33;;;;;;;88.87;85.47;;;7.70;99.90;;;;;;5098889;28;20461;-79
2022/02/04 04:30:00;;;;;;;63.17;60.33;;;7.60;99.90;;;;;;5099814;28;20453;-81
2022/02/04 04:32:27;;;;;;;67.80;65.00;;;7.70;99.90;;;;;;5100010;28;20450;-82
2022/02/04 04:34:53;;;;;;;58.50;55.60;;;7.80;99.90;;;;;;5100546;28;20485;-82
2022/02/04 04:37:23;;;;;;;66.03;63.07;;;7.70;99.90;;;;;;5100782;28;20503;-82
2022/02/04 04:40:00;;;;;;;71.50;68.40;;;7.80;99.90;;;;;;5099169;28;20496;-82
2022/02/04 04:42:42;;;;;;;58.07;55.10;;;7.70;99.90;;;;;;5100062;28;20456;-82
2022/02/04 05:29:21;;;;;;;18.20;16.80;;;8.00;99.90;;;;;;5153717;27;20532;-82
2022/02/04 05:31:48;;;;;;;19.17;17.70;;;7.90;99.90;;;;;;5155255;27;20479;-82
2022/02/04 05:34:17;;;;;;;21.80;20.20;;;7.90;99.90;;;;;;5154258;27;20473;-81
2022/02/04 05:36:46;;;;;;;24.87;23.47;;;8.00;99.90;;;;;;5155833;27;20473;-81
2022/02/04 05:39:15;;;;;;;26.27;24.47;;;7.90;99.90;;;;;;5155144;27;20769;-82
2022/02/04 05:41:47;;;;;;;23.13;21.40;;;7.90;99.90;;;;;;5157031;27;20967;-82
2022/02/04 05:44:15;;;;;;;29.57;27.80;;;7.80;99.90;;;;;;5154630;27;20501;-82
2022/02/04 05:46:50;;;;;;;32.30;30.30;;;7.90;99.90;;;;;;5153535;27;20450;-82
2022/02/04 05:49:19;;;;;;;29.20;27.50;;;7.80;99.90;;;;;;5155335;27;20470;-83
2022/02/04 05:51:56;;;;;;;30.13;28.30;;;7.80;99.90;;;;;;5155395;27;20451;-84
2022/02/04 05:54:36;;;;;;;25.00;23.40;;;7.90;99.90;;;;;;5153854;27;20483;-82
2022/02/04 05:57:08;;;;;;;22.97;21.37;;;7.80;99.90;;;;;;5153195;27;20462;-82
2022/02/04 05:59:53;;;;;;;26.47;24.87;;;7.90;99.90;;;;;;5155008;27;20472;-83
2022/02/04 06:02:29;;;;;;;25.23;23.73;;;7.80;99.90;;;;;;5154754;27;20458;-82
2022/02/04 06:05:02;;;;;;;27.17;25.40;;;7.80;99.90;;;;;;5156145;27;20466;-82
2022/02/04 06:07:36;;;;;;;32.43;30.63;;;7.80;99.90;;;;;;5156709;27;20978;-82
2022/02/04 06:10:27;;;;;;;31.83;29.77;;;7.80;99.90;;;;;;5155259;27;20450;-82
2022/02/04 06:13:39;;;;;;;30.60;29.07;;;7.80;99.90;;;;;;5154048;27;20451;-81
2022/02/04 06:27:55;;;;;;;53.90;51.30;;;7.80;99.90;;;;;;5152279;27;20911;-82
2022/02/04 06:30:34;;;;;;;;;;;;;;;;;;;;;
2022/02/04 06:33:17;;;;;;;79.37;76.17;;;7.90;99.90;;;;;;5152356;27;20447;-82
2022/02/04 06:35:49;;;;;;;99.70;95.93;;;7.80;99.90;;;;;;5153856;27;20477;-81
2022/02/04 06:38:29;;;;;;;99.63;95.93;;;7.80;99.90;;;;;;5152736;27;20530;-81
2022/02/04 06:40:56;;;;;;;129.57;125.07;;;7.80;99.90;;;;;;5138411;27;20487;-82
2022/02/04 06:43:37;;;;;;;137.83;133.10;;;7.90;99.90;;;;;;5138098;27;20447;-81
2022/02/04 06:46:16;;;;;;;;;;;;;;;;;;;;;
2022/02/04 06:48:56;;;;;;;176.13;170.27;;;7.90;99.90;;;;;;5139000;27;20482;-82
2022/02/04 06:52:09;;;;;;;;;;;;;;;;;;;;;
2022/02/04 06:54:48;;;;;;;279.87;269.27;;;7.90;99.90;;;;;;5132726;27;20464;-81
2022/02/04 06:57:43;;;;;;;304.80;294.10;;;7.90;99.90;;;;;;5139297;27;20447;-82
2022/02/04 07:00:24;;;;;;;357.13;344.07;;;7.80;99.90;;;;;;5138923;27;20511;-82
2022/02/04 07:03:14;;;;;;;381.10;366.87;;;7.90;99.90;;;;;;5139664;27;20955;-82
2022/02/04 07:05:57;;;;;;;422.87;406.50;;;7.90;99.90;;;;;;5133837;27;20503;-81
2022/02/04 07:08:36;;;;;;;509.33;486.73;;;7.80;99.90;;;;;;5137679;27;20476;-82
2022/02/04 07:15:00;;;;;;;;;;;;;;;;;;;;;
2022/02/04 07:24:45;;;;;;;664.93;623.93;;;7.40;99.90;;;;;;5029323;28;20622;-81
2022/02/04 07:27:44;;;;;;;667.27;627.07;;;7.40;99.90;;;;;;5066450;28;20455;-80
2022/02/04 07:31:05;;;;;;;653.13;615.37;;;7.40;99.90;;;;;;5136257;27;20887;-82
2022/02/04 07:34:10;;;;;;;639.93;603.77;;;7.30;99.90;;;;;;5136439;27;20455;-81
2022/02/04 08:00:04;;;;;;;;;;;;;;;;;;;;;
2022/02/04 08:06:30;;;;;;;;;;;;;;;;;;;;;
2022/02/04 08:24:59;;;;;;;250.83;242.50;;;8.00;99.90;;;;;;4948264;28;20472;-78
2022/02/04 08:27:51;;;;;;;248.50;240.13;;;8.00;99.90;;;;;;5092949;28;20440;-78
2022/02/04 08:33:55;;;;;;;242.83;234.57;;;8.20;99.90;;;;;;5091983;28;20452;-82
2022/02/04 08:37:20;;;;;;;190.63;184.23;;;8.20;99.90;;;;;;5117497;28;20921;-81
2022/02/04 08:47:02;;;;;;;159.10;153.60;;;8.50;99.90;;;;;;5054838;28;20699;-82
2022/02/04 09:05:50;;;;;;;162.97;157.07;;;8.50;99.90;;;;;;5013972;28;20912;-81
2022/02/04 09:25:02;;;;;;;69.67;66.73;;;8.90;99.90;;;;;;5081046;28;20465;-81
2022/02/04 09:27:54;;;;;;;46.33;44.23;;;9.00;99.90;;;;;;4994727;28;20454;-82
2022/02/04 09:33:33;;;;;;;29.47;27.67;;;9.10;99.90;;;;;;5108372;28;20477;-82
2022/02/04 09:39:33;;;;;;;24.17;22.70;;;9.10;99.90;;;;;;5115515;28;20447;-83
2022/02/04 09:45:48;;;;;;;11.90;10.70;;;9.30;99.90;;;;;;5117716;28;20475;-81
2022/02/04 09:48:47;;;;;;;11.83;10.73;;;9.30;99.90;;;;;;5116678;28;20828;-83
2022/02/04 10:08:42;;;;;;;7.97;7.27;;;9.70;99.90;;;;;;5039341;28;20433;-82
2022/02/04 10:18:33;;;;;;;6.53;5.33;;;9.50;99.90;;;;;;5118323;28;20459;-82
2022/02/04 10:21:24;;;;;;;6.27;5.67;;;9.50;99.90;;;;;;5120335;28;20822;-81
2022/02/04 10:24:39;;;;;;;5.00;3.83;;;9.50;99.90;;;;;;5119397;28;20440;-82
2022/02/04 10:33:30;;;;;;;8.50;5.17;;;10.00;97.70;;;;;;5043128;28;20451;-82
2022/02/04 10:49:02;;;;;;;6.63;4.23;;;10.00;95.70;;;;;;5118070;28;21030;-83
2022/02/04 11:01:17;;;;;;;7.50;3.33;;;10.10;93.70;;;;;;5070522;28;20440;-82
2022/02/04 11:11:39;;;;;;;6.37;2.70;;;10.00;91.50;;;;;;5082618;28;21012;-82
2022/02/04 11:44:11;;;;;;;;;;;;;;;;;;;;;
2022/02/04 11:55:04;;;;;;;;;;;;;;;;;;;;;
2022/02/04 11:58:16;;;;;;;;;;;;;;;;;;;;;
2022/02/04 12:04:40;;;;;;;5.80;2.33;;;9.90;87.90;;;;;;5074273;28;20454;-81
2022/02/04 12:11:26;;;;;;;;;;;;;;;;;;;;;
2022/02/04 12:17:26;;;;;;;8.97;3.60;;;9.60;90.20;;;;;;5060831;28;20865;-80
2022/02/04 12:20:47;;;;;;;;;;;;;;;;;;;;;
2022/02/04 12:24:05;;;;;;;4.60;2.27;;;9.40;90.20;;;;;;5091187;28;20456;-83
2022/02/04 12:39:01;;;;;;;;;;;;;;;;;;;;;
2022/02/04 12:45:03;;;;;;;5.83;2.90;;;9.50;89.80;;;;;;5075931;28;20501;-84
2022/02/04 12:48:33;;;;;;;6.20;2.93;;;9.60;90.00;;;;;;5084282;28;20456;-82
2022/02/04 12:51:07;;;;;;;9.30;2.87;;;9.70;89.10;;;;;;5117968;28;20995;-84
2022/02/04 12:53:48;;;;;;;5.97;3.70;;;9.70;89.70;;;;;;5119204;28;20456;-82
2022/02/04 13:03:18;;;;;;;5.67;2.60;;;9.60;87.90;;;;;;4977203;28;20497;-80
2022/02/04 13:12:53;;;;;;;;;;;;;;;;;;;;;
2022/02/04 13:16:00;;;;;;;10.37;3.40;;;9.80;88.20;;;;;;5050297;28;20490;-82
2022/02/04 13:29:00;;;;;;;6.07;3.57;;;9.90;86.80;;;;;;5045558;28;20517;-82
2022/02/04 13:32:10;;;;;;;;;;;;;;;;;;;;;
2022/02/04 13:45:35;;;;;;;7.87;4.30;;;9.80;86.80;;;;;;4994934;28;20489;-80
2022/02/04 13:49:13;;;;;;;;;;;;;;;;;;;;;
2022/02/04 13:55:33;;;;;;;5.47;2.50;;;9.90;88.60;;;;;;5119513;27;20571;-82
2022/02/04 13:58:48;;;;;;;6.00;3.00;;;9.50;88.20;;;;;;5120810;28;20502;-81
2022/02/04 14:07:55;;;;;;;5.67;2.80;;;9.10;88.90;;;;;;5118543;27;20459;-82
2022/02/04 14:11:05;;;;;;;4.40;2.17;;;9.20;87.70;;;;;;5141307;27;20464;-81
2022/02/04 14:14:04;;;;;;;5.20;2.80;;;9.20;89.00;;;;;;5142140;27;20456;-82
2022/02/04 14:17:06;;;;;;;5.00;2.40;;;9.30;87.90;;;;;;5140339;27;20443;-82
2022/02/04 14:23:47;;;;;;;;;;;;;;;;;;;;;
2022/02/04 14:26:45;;;;;;;4.83;2.40;;;9.60;86.40;;;;;;5138670;27;20443;-81
2022/02/04 14:29:55;;;;;;;4.57;2.13;;;9.50;86.20;;;;;;5056846;28;20455;-81
2022/02/04 14:32:50;;;;;;;4.80;2.10;;;9.30;85.60;;;;;;5141562;27;20803;-82
2022/02/04 14:35:47;;;;;;;6.50;1.83;;;9.30;85.90;;;;;;5142121;27;20524;-81
2022/02/04 14:54:44;;;;;;;;;;;;;;;;;;;;;
2022/02/04 15:07:29;;;;;;;7.60;3.10;;;9.60;84.90;;;;;;5141492;27;20933;-82
2022/02/04 15:21:14;;;;;;;5.67;2.07;;;9.60;81.60;;;;;;5099634;27;20460;-84
2022/02/04 15:24:09;;;;;;;9.53;3.20;;;9.60;83.70;;;;;;5133090;27;20455;-83
2022/02/04 15:37:30;;;;;;;8.97;8.17;;;8.80;92.60;;;;;;5023115;28;20547;-82
2022/02/04 15:40:46;;;;;;;43.03;41.07;;;8.50;95.60;;;;;;5032263;28;20463;-80
2022/02/04 15:50:55;;;;;;;;;;;;;;;;;;;;;
2022/02/04 16:09:29;;;;;;;662.40;630.90;;;7.80;99.90;;;;;;4986063;28;20502;-81
2022/02/04 16:12:07;;;;;;;633.03;606.03;;;8.10;99.90;;;;;;5105356;27;20215;-82
2022/02/04 16:14:42;;;;;;;696.43;662.77;;;8.00;99.90;;;;;;5117590;28;20464;-82
2022/02/04 16:17:35;;;;;;;698.00;663.53;;;8.00;99.90;;;;;;5118949;28;20448;-82
2022/02/04 16:20:17;;;;;;;663.43;633.77;;;8.00;99.90;;;;;;5117866;28;20441;-81
2022/02/04 16:26:23;;;;;;;725.00;685.70;;;8.00;99.90;;;;;;5116263;28;20476;-81
2022/02/04 16:29:00;;;;;;;675.43;644.33;;;8.10;99.90;;;;;;5117859;27;20819;-81
2022/02/04 16:31:43;;;;;;;697.97;662.97;;;8.00;99.90;;;;;;5117350;28;20479;-81
2022/02/04 16:34:34;;;;;;;703.40;656.73;;;7.70;99.90;;;;;;5118332;27;20499;-80
2022/02/04 16:37:18;;;;;;;683.43;649.07;;;7.50;99.90;;;;;;5137329;27;20518;-80
2022/02/04 16:39:49;;;;;;;561.10;538.07;;;7.60;99.90;;;;;;5123065;27;20477;-80
2022/02/04 16:43:01;;;;;;;243.47;236.27;;;7.70;99.90;;;;;;5116686;28;20537;-79
2022/02/04 16:45:37;;;;;;;302.97;294.07;;;7.00;99.90;;;;;;5121535;27;20474;-81
2022/02/04 16:48:08;;;;;;;328.93;319.40;;;6.70;99.90;;;;;;5137888;27;20435;-80
2022/02/04 16:50:51;;;;;;;473.13;458.23;;;6.50;99.90;;;;;;5130743;27;20518;-82
2022/02/04 16:53:21;;;;;;;402.10;390.00;;;6.30;99.90;;;;;;5124678;27;20448;-81
2022/02/04 16:56:00;;;;;;;415.07;402.50;;;6.30;99.90;;;;;;5136888;27;20468;-81
2022/02/04 16:58:38;;;;;;;170.17;164.90;;;6.10;99.90;;;;;;5132056;27;20445;-82
2022/02/04 17:01:39;;;;;;;63.30;61.10;;;5.80;99.90;;;;;;5138667;27;20447;-81
2022/02/04 17:04:16;;;;;;;123.40;119.43;;;5.60;99.90;;;;;;5132659;27;20459;-82
2022/02/04 17:06:46;;;;;;;352.30;341.70;;;5.40;99.90;;;;;;5136990;27;20455;-82
2022/02/04 17:09:34;;;;;;;548.23;528.67;;;5.50;99.90;;;;;;5118358;28;20447;-79
2022/02/04 17:12:07;;;;;;;591.30;568.87;;;5.50;99.90;;;;;;5123838;27;20496;-80
2022/02/04 17:17:51;;;;;;;;;;;;;;;;;;;;;
2022/02/04 17:21:01;;;;;;;558.63;537.33;;;5.40;99.90;;;;;;5122811;27;20437;-81
2022/02/04 17:27:26;;;;;;;407.80;394.17;;;5.40;99.90;;;;;;5094522;28;20444;-82
2022/02/04 17:36:50;;;;;;;447.40;432.03;;;5.30;99.90;;;;;;5050302;22;20503;-82
2022/02/04 17:48:52;;;;;;;313.83;303.77;;;5.30;99.90;;;;;;5006165;28;20454;-82
2022/02/04 17:51:53;;;;;;;436.87;421.83;;;5.30;99.90;;;;;;5018442;28;20473;-82
2022/02/04 17:54:36;;;;;;;451.13;435.43;;;5.40;99.90;;;;;;5002676;28;20984;-81
2022/02/04 18:03:33;;;;;;;629.27;603.30;;;5.10;99.90;;;;;;5018157;28;20428;-80
2022/02/04 18:06:11;;;;;;;735.20;689.67;;;5.00;99.90;;;;;;5017537;28;20559;-81
2022/02/04 18:08:49;;;;;;;743.70;691.70;;;4.90;99.90;;;;;;5017151;28;20453;-81
2022/02/04 18:11:16;;;;;;;732.13;676.30;;;4.80;99.90;;;;;;5016531;28;20536;-80
2022/02/04 18:13:47;;;;;;;738.50;688.23;;;4.90;99.90;;;;;;5017666;28;20488;-79
2022/02/04 18:16:16;;;;;;;718.17;678.87;;;4.80;99.90;;;;;;5017382;28;20453;-80
2022/02/04 18:18:51;;;;;;;666.13;634.97;;;4.80;99.90;;;;;;5018752;28;20453;-80
2022/02/04 18:21:35;;;;;;;693.30;657.07;;;4.80;99.90;;;;;;5016410;28;20457;-80
2022/02/04 18:24:04;;;;;;;572.93;549.73;;;4.70;99.90;;;;;;5005290;28;21001;-81
2022/02/04 18:26:31;;;;;;;670.97;624.00;;;4.20;99.90;;;;;;5015827;28;20456;-81
2022/02/04 18:28:59;;;;;;;659.77;623.27;;;4.10;99.90;;;;;;5015700;28;20445;-81
2022/02/04 18:31:27;;;;;;;681.07;638.90;;;3.90;99.90;;;;;;5015061;28;20479;-81
2022/02/04 18:33:53;;;;;;;686.53;638.63;;;3.90;99.90;;;;;;5017449;28;20851;-80
2022/02/04 18:36:20;;;;;;;681.53;634.63;;;3.80;99.90;;;;;;5019641;28;20467;-82
2022/02/04 18:38:51;;;;;;;683.67;629.27;;;3.70;99.90;;;;;;5019934;28;20457;-81
2022/02/04 18:41:35;;;;;;;675.40;618.10;;;3.80;99.90;;;;;;5020944;28;20481;-81
2022/02/04 18:44:05;;;;;;;676.33;621.07;;;3.80;99.90;;;;;;5020556;28;20476;-81
2022/02/04 18:49:34;;;;;;;682.17;626.47;;;3.70;99.90;;;;;;4978039;28;20435;-82
2022/02/04 18:52:07;;;;;;;693.80;643.87;;;3.70;99.90;;;;;;5012205;28;20473;-82
2022/02/04 18:54:55;;;;;;;707.23;658.10;;;3.70;99.90;;;;;;5020533;28;20473;-81
2022/02/04 18:57:24;;;;;;;697.17;653.97;;;3.70;99.90;;;;;;5021788;28;20525;-82
2022/02/04 18:59:56;;;;;;;697.10;651.77;;;3.80;99.90;;;;;;5020769;28;20476;-82
2022/02/04 19:02:25;;;;;;;703.83;657.40;;;3.80;99.90;;;;;;5022198;28;20828;-82
2022/02/04 19:04:58;;;;;;;702.37;657.77;;;4.00;99.90;;;;;;5021632;28;20568;-80
2022/02/04 19:07:36;;;;;;;675.87;635.90;;;4.00;99.90;;;;;;5017681;28;20988;-81
2022/02/04 19:10:04;;;;;;;675.30;636.20;;;4.00;99.90;;;;;;5022434;28;20503;-81
2022/02/04 19:12:38;;;;;;;666.57;628.77;;;4.10;99.90;;;;;;5023041;28;20476;-82
2022/02/04 19:15:24;;;;;;;645.10;611.90;;;4.00;99.90;;;;;;5022583;28;20483;-81
2022/02/04 19:17:57;;;;;;;659.73;623.83;;;4.10;99.90;;;;;;5022316;28;20848;-82
2022/02/04 19:20:31;;;;;;;665.80;630.90;;;3.90;99.90;;;;;;5005719;28;20464;-81
2022/02/04 19:23:01;;;;;;;671.73;636.10;;;4.00;99.90;;;;;;5003391;28;20878;-81
2022/02/04 19:25:33;;;;;;;688.00;650.50;;;3.80;99.90;;;;;;5020427;28;20479;-81
2022/02/04 19:28:02;;;;;;;700.97;661.43;;;3.80;99.90;;;;;;5020836;28;20457;-81
2022/02/04 19:30:30;;;;;;;693.10;655.13;;;3.70;99.90;;;;;;5020551;28;20480;-81
2022/02/04 19:32:57;;;;;;;685.13;649.90;;;3.70;99.90;;;;;;5019363;28;21016;-82
2022/02/04 19:35:24;;;;;;;688.27;651.07;;;3.80;99.90;;;;;;5019191;28;20848;-82
2022/02/04 19:37:55;;;;;;;671.03;637.23;;;3.70;99.90;;;;;;5016849;28;20449;-80
2022/02/04 19:40:22;;;;;;;672.87;637.90;;;3.70;99.90;;;;;;5018446;28;20524;-82
2022/02/04 19:42:49;;;;;;;681.67;647.47;;;3.70;99.90;;;;;;5021215;28;20449;-82
2022/02/04 19:45:23;;;;;;;683.03;648.50;;;3.70;99.90;;;;;;5019868;28;20477;-82
2022/02/04 19:47:54;;;;;;;680.03;644.13;;;3.70;99.90;;;;;;5010357;28;20855;-82
2022/02/04 19:50:28;;;;;;;660.33;627.17;;;3.60;99.90;;;;;;5013775;28;20452;-82
2022/02/04 20:07:14;;;;;;;558.83;535.13;;;3.70;99.90;;;;;;5019907;28;20593;-82
2022/02/04 20:13:21;;;;;;;547.63;524.57;;;3.90;99.90;;;;;;5019990;28;20492;-82
2022/02/04 20:24:03;;;;;;;547.57;524.27;;;4.00;99.90;;;;;;5019443;28;20420;-82
2022/02/04 20:26:32;;;;;;;571.80;547.13;;;4.00;99.90;;;;;;5018661;28;20483;-82
2022/02/04 20:28:59;;;;;;;600.97;573.87;;;4.00;99.90;;;;;;5018353;28;20445;-82
2022/02/04 20:31:28;;;;;;;602.70;575.17;;;4.00;99.90;;;;;;5018401;28;20465;-81
2022/02/04 20:33:56;;;;;;;577.57;551.90;;;4.00;99.90;;;;;;5018726;28;20942;-82
2022/02/04 20:36:23;;;;;;;597.83;570.23;;;4.20;99.90;;;;;;5019110;28;20468;-81
2022/02/04 20:38:51;;;;;;;584.60;557.50;;;4.20;99.90;;;;;;5018315;28;20453;-82
2022/02/04 20:41:23;;;;;;;581.93;556.50;;;4.20;99.90;;;;;;5017084;28;20477;-82
2022/02/04 20:43:50;;;;;;;557.40;533.00;;;4.20;99.90;;;;;;5016544;28;20961;-81
2022/02/04 20:46:17;;;;;;;546.43;523.10;;;4.30;99.90;;;;;;5016217;28;20453;-81
2022/02/04 20:48:44;;;;;;;530.43;508.50;;;4.30;99.90;;;;;;5015708;28;20945;-81
2022/02/04 20:51:12;;;;;;;493.30;470.00;;;4.40;99.90;;;;;;5017165;28;20463;-82
2022/02/04 20:53:40;;;;;;;438.97;423.00;;;4.30;99.90;;;;;;5017016;28;20476;-82
2022/02/04 20:56:09;;;;;;;477.77;460.10;;;4.30;99.90;;;;;;5016561;28;20450;-82
2022/02/04 20:58:36;;;;;;;484.13;466.33;;;4.20;99.90;;;;;;5015609;28;20980;-82
2022/02/04 21:01:10;;;;;;;509.57;490.23;;;4.20;99.90;;;;;;5015810;28;20517;-82
2022/02/04 21:03:38;;;;;;;529.40;508.57;;;4.10;99.90;;;;;;5014955;28;20451;-81
2022/02/04 21:06:15;;;;;;;502.93;484.07;;;4.10;99.90;;;;;;5015711;28;20461;-82
2022/02/04 21:09:11;;;;;;;478.63;460.93;;;4.10;99.90;;;;;;5015929;28;20453;-81
2022/02/04 21:14:41;;;;;;;538.97;517.87;;;4.10;99.90;;;;;;5015328;28;20460;-82
2022/02/04 21:17:08;;;;;;;537.33;516.13;;;4.10;99.90;;;;;;5015222;28;20477;-81
2022/02/04 21:19:35;;;;;;;509.63;490.27;;;4.10;99.90;;;;;;5015412;28;20476;-81
2022/02/04 21:22:02;;;;;;;512.53;492.27;;;4.10;99.90;;;;;;5015368;28;20881;-81
2022/02/04 21:24:30;;;;;;;508.13;488.23;;;4.10;99.90;;;;;;5015314;28;20465;-81
2022/02/04 21:26:59;;;;;;;547.40;525.00;;;4.10;99.90;;;;;;5014797;28;20453;-81
2022/02/04 21:29:25;;;;;;;501.73;482.53;;;4.00;99.90;;;;;;5015653;28;20464;-82
2022/02/04 21:31:53;;;;;;;484.83;466.67;;;4.20;99.90;;;;;;5014989;28;20488;-82
2022/02/04 21:37:10;;;;;;;505.17;485.67;;;4.10;99.90;;;;;;5014185;28;20437;-82
2022/02/04 21:39:45;;;;;;;500.67;481.87;;;4.10;99.90;;;;;;5014876;28;20453;-81
2022/02/04 21:42:17;;;;;;;520.07;499.33;;;4.00;99.90;;;;;;5015397;28;20436;-81
2022/02/04 21:44:45;;;;;;;507.70;487.33;;;4.20;99.90;;;;;;5014586;28;20472;-81
2022/02/04 21:47:17;;;;;;;485.57;467.33;;;4.10;99.90;;;;;;5015328;28;20484;-82
2022/02/04 21:49:48;;;;;;;484.07;464.80;;;4.10;99.90;;;;;;5014654;28;20437;-81
2022/02/04 21:52:15;;;;;;;469.00;451.23;;;4.20;99.90;;;;;;5015388;28;21007;-81
2022/02/04 21:54:43;;;;;;;481.47;462.73;;;4.30;99.90;;;;;;5014851;28;20485;-81
2022/02/04 21:57:11;;;;;;;472.77;455.13;;;4.30;99.90;;;;;;5014129;28;20460;-81
2022/02/04 21:59:38;;;;;;;441.07;424.93;;;4.40;99.90;;;;;;5013536;28;20499;-82
2022/02/04 22:02:05;;;;;;;497.93;478.73;;;4.50;99.90;;;;;;5015023;28;20456;-82
2022/02/04 22:04:32;;;;;;;573.83;549.23;;;4.40;99.90;;;;;;5015655;28;20564;-82
2022/02/04 22:06:59;;;;;;;586.13;559.80;;;4.20;99.90;;;;;;5017586;28;20457;-81
2022/02/04 22:09:34;;;;;;;590.83;564.93;;;4.20;99.90;;;;;;5018233;28;20548;-80
2022/02/04 22:15:20;;;;;;;605.60;580.13;;;4.30;99.90;;;;;;5093415;27;20547;-82
2022/02/04 22:19:27;;;;;;;588.03;563.93;;;4.20;99.90;;;;;;5095074;28;20473;-81
2022/02/04 22:23:18;;;;;;;627.47;599.37;;;4.20;99.90;;;;;;5094897;28;20421;-81
2022/02/04 22:25:44;;;;;;;617.57;589.87;;;4.20;99.90;;;;;;5095178;28;20477;-81
2022/02/04 22:28:11;;;;;;;625.87;597.87;;;4.10;99.90;;;;;;5090825;28;20991;-80
2022/02/04 22:30:42;;;;;;;546.43;525.17;;;3.70;99.90;;;;;;5073097;28;20462;-81
2022/02/04 22:33:12;;;;;;;588.80;563.10;;;3.30;99.90;;;;;;5076954;28;20937;-81
2022/02/04 22:35:45;;;;;;;609.33;578.83;;;3.20;99.90;;;;;;5094977;28;20469;-81
2022/02/04 22:44:18;;;;;;;622.87;587.50;;;3.10;99.90;;;;;;5089582;28;20537;-79
2022/02/04 22:49:56;;;;;;;572.10;546.77;;;3.40;99.90;;;;;;5074189;28;20431;-81
2022/02/04 22:52:33;;;;;;;598.97;570.53;;;3.30;99.90;;;;;;5086778;28;20515;-81
2022/02/04 22:57:52;;;;;;;599.20;571.33;;;3.40;99.90;;;;;;5077802;28;20500;-81
2022/02/04 23:00:34;;;;;;;603.97;576.10;;;3.30;99.90;;;;;;5075049;28;20515;-81